• Join FlightAware (Why Join?)
  • Login
  • US Flag 
10:51PM EST


 

Airport Tracker/Info


-or-


 

Live Flight TrackerFlight Track Log ✈ EJA396 ✈ 05-May-2014 ✈ KGPI - KPDX

Flight Track Log - Related Links

Times and Time Zones

All times are in EDT time to prevent confusion due to time zone crossing. See the EJA396 flight status page for this flight to view local times or setup timezone preferences in your user account.

Time Position Orientation Groundspeed Altitude Reporting Facility
EDT Latitude Longitude Course Direction KTS MPH feet Rate Location/Type
07:04PM 48.1982 -114.7863 252° West  Level FlightAware Approximate
07:05PM 48.1696 -114.9195 252° West  Level FlightAware Approximate
07:05PM 48.3211 -114.2550 253° West 189 217 4,200  Level Salt Lake Center
07:06PM 48.1411 -115.0528 252° West  Level FlightAware Approximate
07:06PM 48.3181 -114.3222 266° West 231 266 8,700  Level Salt Lake Center
07:07PM 48.1119 -115.1856 250° West  Level FlightAware Approximate
07:08PM 48.0792 -115.3165 250° West  Level FlightAware Approximate
07:08PM 48.1911 -114.2261 153° Southeast 284 327 19,600  Level Salt Lake Center
07:09PM 48.0466 -115.4473 250° West  Level FlightAware Approximate
07:09PM 48.1525 -114.3314 241° Southwest 301 346 22,700  Level Salt Lake Center
07:10PM 48.0174 -115.5798 253° West  Level FlightAware Approximate
07:10PM 48.1144 -114.4492 244° Southwest 318 366 26,000  Level Salt Lake Center
07:11PM 48.0697 -114.5969 246° West 330 380 29,600 3,120 Climbing Salt Lake Center
07:12PM 48.0314 -114.7197 245° Southwest 331 381 32,400 1,740 Climbing Salt Lake Center
07:14PM 47.9511 -114.9761 245° Southwest 347 399 35,000 780 Climbing Seattle Center
07:15PM 47.9039 -115.1250 245° Southwest 391 450 35,000  Level Seattle Center
07:16PM 47.8569 -115.2742 245° Southwest 399 459 35,000  Level Salt Lake Center
07:17PM 47.8017 -115.4453 244° Southwest 390 449 35,000  Level Salt Lake Center
07:18PM 47.7567 -115.5864 245° Southwest 384 442 35,000  Level Salt Lake Center
07:19PM 47.7119 -115.7203 244° Southwest 380 437 35,000  Level Seattle Center
07:20PM 47.6664 -115.8586 244° Southwest 376 433 35,000  Level Seattle Center
07:21PM 47.6214 -115.9958 244° Southwest 374 430 35,000 120 Level Seattle Center
07:22PM 47.5758 -116.1350 244° Southwest 374 430 35,300 420 Climbing Seattle Center
07:23PM 47.5272 -116.2806 244° Southwest 387 445 35,900 300 Climbing Seattle Center
07:24PM 47.4778 -116.4306 244° Southwest 405 466 36,000  Climbing Seattle Center
07:25PM 47.4283 -116.5775 244° Southwest 401 461 36,000  Level Seattle Center
07:27PM 47.3806 -116.7192 244° Southwest 391 450 36,000  Level Seattle Center
07:28PM 47.3333 -116.8581 243° Southwest 381 438 36,000  Level Seattle Center
07:29PM 47.2858 -116.9969 243° Southwest 379 436 36,000  Level Seattle Center
07:30PM 47.2389 -117.1331 243° Southwest 373 429 36,000  Level Seattle Center
07:31PM 47.1917 -117.2697 243° Southwest 373 429 36,000  Level Seattle Center
07:32PM 47.1442 -117.4069 243° Southwest 373 429 36,000  Level Seattle Center
07:33PM 47.0986 -117.5417 244° Southwest 371 427 36,000  Level Seattle Center
07:34PM 47.0503 -117.6778 243° Southwest 372 428 36,000  Level Seattle Center
07:35PM 47.0031 -117.8167 244° Southwest 380 437 36,000  Level Seattle Center
07:36PM 46.9433 -117.9814 242° Southwest 383 441 36,000  Level Seattle Center
07:37PM 46.8933 -118.1192 242° Southwest 383 441 36,000  Level Seattle Center
07:38PM 46.8439 -118.2581 243° Southwest 383 441 36,000  Level Seattle Center
07:39PM 46.7931 -118.3967 242° Southwest 384 442 36,000  Level Seattle Center
07:40PM 46.7431 -118.5361 242° Southwest 385 443 36,000  Level Seattle Center
07:41PM 46.6917 -118.6772 242° Southwest 390 449 36,000  Level Seattle Center
07:42PM 46.6394 -118.8178 242° Southwest 392 451 36,000  Level Seattle Center
07:43PM 46.5861 -118.9636 242° Southwest 394 453 36,000  Level Seattle Center
07:44PM 46.5336 -119.1053 242° Southwest 399 459 36,000  Level Seattle Center
07:45PM 46.4814 -119.2469 242° Southwest 399 459 36,000  Level Seattle Center
07:46PM 46.4289 -119.3886 242° Southwest 400 460 36,000  Level Seattle Center
07:47PM 46.3756 -119.5308 242° Southwest 401 461 36,000  Level Seattle Center
07:48PM 46.3214 -119.6708 241° Southwest 401 461 36,000  Level Seattle Center
07:49PM 46.2672 -119.8125 241° Southwest 401 461 36,000  Level Seattle Center
07:50PM 46.2039 -119.9839 242° Southwest 404 465 36,000  Level Seattle Center
07:51PM 46.1481 -120.1250 240° Southwest 405 466 36,000  Level Seattle Center
07:52PM 46.0933 -120.2672 241° Southwest 405 466 36,000 -180 Level Seattle Center
07:53PM 46.0383 -120.4094 241° Southwest 405 466 35,700 -2,520 Descending Seattle Center
07:54PM 45.9803 -120.5569 241° Southwest 422 486 30,900 -4,620 Descending Seattle Center
07:55PM 45.9219 -120.7086 241° Southwest 433 498 26,400 -3,480 Descending Seattle Center
07:56PM 45.8619 -120.8367 236° Southwest 396 456 24,000 -1,380 Descending Seattle Center
07:57PM 45.7892 -120.9650 231° Southwest 413 475 23,700 -1,500 Descending Seattle Center
07:58PM 45.7231 -121.0808 231° Southwest 371 427 21,000 -2,460 Descending Seattle Center
07:59PM 45.6778 -121.2136 244° Southwest 377 434 18,800 -1,740 Descending Seattle Center
08:00PM 45.6506 -121.3111 248° West 362 417 18,200 -300 Descending Seattle Center
08:00PM 45.6383 -121.3467 244° Southwest 370 426 18,500 840 Climbing Seattle Center
08:00PM 45.6119 -121.4364 247° West 375 432 19,000 -300 Climbing Seattle Center
08:01PM 45.5956 -121.4789 241° Southwest 370 426 18,200 -2,280 Descending Seattle Center
08:01PM 45.5867 -121.5217 253° West 345 397 17,400 -3,180 Descending Seattle Center
08:02PM 45.5561 -121.6281 248° West 346 398 15,000 -2,880 Descending Seattle Center
08:03PM 45.5383 -121.7506 258° West 318 366 12,200 -2,160 Descending Seattle Center
08:04PM 45.5336 -121.8728 267° West 310 357 10,700 -1,560 Descending Seattle Center
08:05PM 45.5303 -121.9789 267° West 254 292 9,100 -1,560 Descending Seattle Center
08:06PM 45.5319 -122.0753 271° West 226 260 7,600 -1,560 Descending Seattle Center
08:07PM 45.5331 -122.1600 271° West 215 247 6,000 -1,560 Descending Seattle Center
08:08PM 45.5339 -122.2514 271° West 230 265 4,500 -1,500 Descending Seattle Center
08:08PM 45.5339 -122.2800 270° West 236 272 4,100 -600 Descending Seattle Center
08:09PM 45.5322 -122.3392 268° West 217 250 3,900 -540 Descending Seattle Center
08:10PM 45.5328 -122.3700 271° West 194 223 3,500 -900 Descending Seattle Center
08:10PM 45.5350 -122.4233 273° West 197 227 3,000 -720 Descending Seattle Center
08:11PM 45.5347 -122.4433 269° West 183 211 2,800 -1,020 Descending Seattle Center
08:11PM 45.5489 -122.4775 301° West 145 167 2,000 -1,080 Descending Seattle Center
08:12PM 45.5617 -122.5122 298° West 100 115 1,100 -900 Descending Seattle Center
08:13PM 45.5764 -122.5528 297° West 103 119 300 -840 Descending Seattle Center